Sie sind hier: Startseite Alle Angebote Tour 1.gpx

Tour 1.gpx

Extensible Markup Language (XML) icon Tour 1.gpx — Extensible Markup Language (XML), 28 KB (28683 bytes)

Dateiinhalt

<?xml version="1.0" encoding="UTF-8"?>
<gpx
version="1.1"
creator="Created by My Tracks from Daniel Qin"
xmlns="http://www.topografix.com/GPX/1/1"
xmlns:topografix="http://www.topografix.com/GPX/Private/TopoGrafix/0/1"
xmlns:xsi="http://www.w3.org/2001/XMLSchema-instance"
xsi:schemaLocation="http://www.topografix.com/GPX/1/1 http://www.topografix.com/GPX/1/1/gpx.xsd http://www.topografix.com/GPX/Private/TopoGrafix/0/1 http://www.topografix.com/GPX/Private/TopoGrafix/0/1/topografix.xsd">
<metadata>
<name><![CDATA[Institutsviertel-Runde]]></name>
<desc><![CDATA[Zum botanischen Garten.]]></desc>
</metadata>
<trk>
<name><![CDATA[Institutsviertel-Runde]]></name>
<desc><![CDATA[Zum botanischen Garten.]]></desc>
<type><![CDATA[10]]></type>
<extensions><topografix:color>3A73E2</topografix:color></extensions>
<trkseg>
<trkpt lat="48.002206" lon="7.84999">
<ele>319.4</ele>
<time>2022-03-12T09:34:14.040Z</time>
</trkpt>
<trkpt lat="48.002202" lon="7.850087">
<ele>319.4</ele>
<time>2022-03-12T09:34:16.040Z</time>
</trkpt>
<trkpt lat="48.002371" lon="7.850078">
<ele>319.8</ele>
<time>2022-03-12T09:34:16.699Z</time>
</trkpt>
<trkpt lat="48.002362" lon="7.850146">
<ele>319.8</ele>
<time>2022-03-12T09:34:19.826Z</time>
</trkpt>
<trkpt lat="48.002438" lon="7.850141">
<ele>319.4</ele>
<time>2022-03-12T09:34:22.327Z</time>
</trkpt>
<trkpt lat="48.002376" lon="7.850251">
<ele>319.8</ele>
<time>2022-03-12T09:34:25.407Z</time>
</trkpt>
<trkpt lat="48.002367" lon="7.850319">
<ele>319.8</ele>
<time>2022-03-12T09:34:29.465Z</time>
</trkpt>
<trkpt lat="48.002376" lon="7.850394">
<ele>320</ele>
<time>2022-03-12T09:34:35.618Z</time>
</trkpt>
<trkpt lat="48.002424" lon="7.850391">
<ele>320</ele>
<time>2022-03-12T09:34:38.180Z</time>
</trkpt>
<trkpt lat="48.002419" lon="7.85048">
<ele>320</ele>
<time>2022-03-12T09:34:44.842Z</time>
</trkpt>
<trkpt lat="48.00242" lon="7.85055">
<ele>320</ele>
<time>2022-03-12T09:34:47.421Z</time>
</trkpt>
<trkpt lat="48.002428" lon="7.850624">
<ele>320</ele>
<time>2022-03-12T09:34:51.000Z</time>
</trkpt>
<trkpt lat="48.002436" lon="7.850702">
<ele>320</ele>
<time>2022-03-12T09:34:56.662Z</time>
</trkpt>
<trkpt lat="48.002459" lon="7.850815">
<ele>320</ele>
<time>2022-03-12T09:35:02.662Z</time>
</trkpt>
<trkpt lat="48.002474" lon="7.85094">
<ele>320</ele>
<time>2022-03-12T09:35:08.385Z</time>
</trkpt>
<trkpt lat="48.002498" lon="7.850997">
<ele>320</ele>
<time>2022-03-12T09:35:11.264Z</time>
</trkpt>
<trkpt lat="48.002538" lon="7.851078">
<ele>320</ele>
<time>2022-03-12T09:35:17.041Z</time>
</trkpt>
<trkpt lat="48.00259" lon="7.851136">
<ele>321.4</ele>
<time>2022-03-12T09:35:23.383Z</time>
</trkpt>
<trkpt lat="48.002586" lon="7.851245">
<ele>321.4</ele>
<time>2022-03-12T09:35:29.322Z</time>
</trkpt>
<trkpt lat="48.002549" lon="7.851495">
<ele>319.6</ele>
<time>2022-03-12T09:35:35.882Z</time>
</trkpt>
<trkpt lat="48.002547" lon="7.851661">
<ele>319.6</ele>
<time>2022-03-12T09:35:42.383Z</time>
</trkpt>
<trkpt lat="48.002467" lon="7.851912">
<ele>319.6</ele>
<time>2022-03-12T09:35:48.418Z</time>
</trkpt>
<trkpt lat="48.002503" lon="7.851831">
<ele>319.6</ele>
<time>2022-03-12T09:35:51.505Z</time>
</trkpt>
<trkpt lat="48.002579" lon="7.851855">
<ele>319.6</ele>
<time>2022-03-12T09:35:58.205Z</time>
</trkpt>
<trkpt lat="48.002646" lon="7.851888">
<ele>319.6</ele>
<time>2022-03-12T09:36:01.720Z</time>
</trkpt>
<trkpt lat="48.002692" lon="7.851927">
<ele>319.6</ele>
<time>2022-03-12T09:36:04.886Z</time>
</trkpt>
<trkpt lat="48.002738" lon="7.851945">
<ele>319.6</ele>
<time>2022-03-12T09:36:07.824Z</time>
</trkpt>
<trkpt lat="48.002784" lon="7.851975">
<ele>319.6</ele>
<time>2022-03-12T09:36:11.338Z</time>
</trkpt>
<trkpt lat="48.002842" lon="7.852001">
<ele>319.6</ele>
<time>2022-03-12T09:36:14.365Z</time>
</trkpt>
<trkpt lat="48.00292" lon="7.852032">
<ele>319.6</ele>
<time>2022-03-12T09:36:20.421Z</time>
</trkpt>
<trkpt lat="48.002978" lon="7.852018">
<ele>319.6</ele>
<time>2022-03-12T09:36:24.542Z</time>
</trkpt>
<trkpt lat="48.003026" lon="7.852039">
<ele>319.6</ele>
<time>2022-03-12T09:36:30.000Z</time>
</trkpt>
<trkpt lat="48.0031" lon="7.852081">
<ele>319.6</ele>
<time>2022-03-12T09:36:35.260Z</time>
</trkpt>
<trkpt lat="48.003176" lon="7.852112">
<ele>319.6</ele>
<time>2022-03-12T09:36:41.067Z</time>
</trkpt>
<trkpt lat="48.003234" lon="7.85212">
<ele>319.6</ele>
<time>2022-03-12T09:36:44.683Z</time>
</trkpt>
<trkpt lat="48.003298" lon="7.852142">
<ele>318.4</ele>
<time>2022-03-12T09:36:47.520Z</time>
</trkpt>
<trkpt lat="48.003348" lon="7.852158">
<ele>318.4</ele>
<time>2022-03-12T09:36:50.457Z</time>
</trkpt>
<trkpt lat="48.003402" lon="7.852179">
<ele>318.4</ele>
<time>2022-03-12T09:36:53.961Z</time>
</trkpt>
<trkpt lat="48.003457" lon="7.852204">
<ele>318.4</ele>
<time>2022-03-12T09:36:56.762Z</time>
</trkpt>
<trkpt lat="48.003507" lon="7.852225">
<ele>318.4</ele>
<time>2022-03-12T09:36:59.540Z</time>
</trkpt>
<trkpt lat="48.00356" lon="7.852244">
<ele>318.4</ele>
<time>2022-03-12T09:37:02.339Z</time>
</trkpt>
<trkpt lat="48.00361" lon="7.852266">
<ele>318.4</ele>
<time>2022-03-12T09:37:05.158Z</time>
</trkpt>
<trkpt lat="48.003664" lon="7.852302">
<ele>318.4</ele>
<time>2022-03-12T09:37:07.997Z</time>
</trkpt>
<trkpt lat="48.00372" lon="7.852328">
<ele>318.4</ele>
<time>2022-03-12T09:37:10.965Z</time>
</trkpt>
<trkpt lat="48.003777" lon="7.852354">
<ele>318.4</ele>
<time>2022-03-12T09:37:15.104Z</time>
</trkpt>
<trkpt lat="48.003827" lon="7.852393">
<ele>318.4</ele>
<time>2022-03-12T09:37:20.246Z</time>
</trkpt>
<trkpt lat="48.003875" lon="7.852415">
<ele>318.4</ele>
<time>2022-03-12T09:37:23.602Z</time>
</trkpt>
<trkpt lat="48.00396" lon="7.852471">
<ele>318.4</ele>
<time>2022-03-12T09:37:29.200Z</time>
</trkpt>
<trkpt lat="48.004007" lon="7.85247">
<ele>318.4</ele>
<time>2022-03-12T09:37:32.099Z</time>
</trkpt>
<trkpt lat="48.004055" lon="7.852464">
<ele>318.4</ele>
<time>2022-03-12T09:37:35.046Z</time>
</trkpt>
<trkpt lat="48.004098" lon="7.852495">
<ele>318.4</ele>
<time>2022-03-12T09:37:37.866Z</time>
</trkpt>
<trkpt lat="48.00413" lon="7.852596">
<ele>318.4</ele>
<time>2022-03-12T09:37:43.821Z</time>
</trkpt>
<trkpt lat="48.00413" lon="7.852681">
<ele>317.1</ele>
<time>2022-03-12T09:37:46.739Z</time>
</trkpt>
<trkpt lat="48.004081" lon="7.852758">
<ele>317.1</ele>
<time>2022-03-12T09:37:53.341Z</time>
</trkpt>
<trkpt lat="48.004053" lon="7.85284">
<ele>317.1</ele>
<time>2022-03-12T09:37:58.960Z</time>
</trkpt>
<trkpt lat="48.004069" lon="7.852904">
<ele>317.1</ele>
<time>2022-03-12T09:38:02.403Z</time>
</trkpt>
<trkpt lat="48.004109" lon="7.853014">
<ele>317.1</ele>
<time>2022-03-12T09:38:08.201Z</time>
</trkpt>
<trkpt lat="48.004132" lon="7.853107">
<ele>317.1</ele>
<time>2022-03-12T09:38:11.178Z</time>
</trkpt>
<trkpt lat="48.004159" lon="7.853244">
<ele>317.1</ele>
<time>2022-03-12T09:38:15.000Z</time>
</trkpt>
<trkpt lat="48.004178" lon="7.85334">
<ele>317.1</ele>
<time>2022-03-12T09:38:20.380Z</time>
</trkpt>
<trkpt lat="48.004199" lon="7.853449">
<ele>317.1</ele>
<time>2022-03-12T09:38:26.525Z</time>
</trkpt>
<trkpt lat="48.004237" lon="7.853613">
<ele>316.2</ele>
<time>2022-03-12T09:38:35.518Z</time>
</trkpt>
<trkpt lat="48.004293" lon="7.853679">
<ele>316.2</ele>
<time>2022-03-12T09:38:41.365Z</time>
</trkpt>
<trkpt lat="48.004341" lon="7.853746">
<ele>316.2</ele>
<time>2022-03-12T09:38:44.183Z</time>
</trkpt>
<trkpt lat="48.004387" lon="7.853802">
<ele>316.2</ele>
<time>2022-03-12T09:38:46.983Z</time>
</trkpt>
<trkpt lat="48.004428" lon="7.853849">
<ele>316.2</ele>
<time>2022-03-12T09:38:49.746Z</time>
</trkpt>
<trkpt lat="48.00449" lon="7.853895">
<ele>316.2</ele>
<time>2022-03-12T09:38:53.079Z</time>
</trkpt>
<trkpt lat="48.004536" lon="7.853917">
<ele>316.2</ele>
<time>2022-03-12T09:38:54.945Z</time>
</trkpt>
<trkpt lat="48.004594" lon="7.85395">
<ele>316.2</ele>
<time>2022-03-12T09:38:57.388Z</time>
</trkpt>
<trkpt lat="48.004638" lon="7.853983">
<ele>316.2</ele>
<time>2022-03-12T09:39:00.000Z</time>
</trkpt>
<trkpt lat="48.004697" lon="7.854025">
<ele>316.2</ele>
<time>2022-03-12T09:39:03.481Z</time>
</trkpt>
<trkpt lat="48.004747" lon="7.854055">
<ele>316.2</ele>
<time>2022-03-12T09:39:07.302Z</time>
</trkpt>
<trkpt lat="48.004796" lon="7.854084">
<ele>316.2</ele>
<time>2022-03-12T09:39:10.647Z</time>
</trkpt>
<trkpt lat="48.004858" lon="7.854115">
<ele>316.2</ele>
<time>2022-03-12T09:39:14.341Z</time>
</trkpt>
<trkpt lat="48.004904" lon="7.854165">
<ele>316.2</ele>
<time>2022-03-12T09:39:17.218Z</time>
</trkpt>
<trkpt lat="48.004935" lon="7.854213">
<ele>316.2</ele>
<time>2022-03-12T09:39:20.000Z</time>
</trkpt>
<trkpt lat="48.004985" lon="7.854244">
<ele>316.2</ele>
<time>2022-03-12T09:39:23.000Z</time>
</trkpt>
<trkpt lat="48.005048" lon="7.854255">
<ele>316.2</ele>
<time>2022-03-12T09:39:25.510Z</time>
</trkpt>
<trkpt lat="48.005093" lon="7.854262">
<ele>316.2</ele>
<time>2022-03-12T09:39:28.000Z</time>
</trkpt>
<trkpt lat="48.005137" lon="7.854278">
<ele>316.2</ele>
<time>2022-03-12T09:39:29.746Z</time>
</trkpt>
<trkpt lat="48.005188" lon="7.854306">
<ele>316.2</ele>
<time>2022-03-12T09:39:33.359Z</time>
</trkpt>
<trkpt lat="48.005236" lon="7.854353">
<ele>316.2</ele>
<time>2022-03-12T09:39:38.064Z</time>
</trkpt>
<trkpt lat="48.005297" lon="7.85438">
<ele>316.2</ele>
<time>2022-03-12T09:39:43.860Z</time>
</trkpt>
<trkpt lat="48.00527" lon="7.854245">
<ele>316.2</ele>
<time>2022-03-12T09:39:53.729Z</time>
</trkpt>
<trkpt lat="48.005294" lon="7.854186">
<ele>315.5</ele>
<time>2022-03-12T09:39:59.306Z</time>
</trkpt>
<trkpt lat="48.005354" lon="7.854232">
<ele>315.5</ele>
<time>2022-03-12T09:40:02.204Z</time>
</trkpt>
<trkpt lat="48.005445" lon="7.854284">
<ele>315.5</ele>
<time>2022-03-12T09:40:05.480Z</time>
</trkpt>
<trkpt lat="48.005513" lon="7.854308">
<ele>315.5</ele>
<time>2022-03-12T09:40:08.567Z</time>
</trkpt>
<trkpt lat="48.005575" lon="7.85434">
<ele>315.5</ele>
<time>2022-03-12T09:40:11.585Z</time>
</trkpt>
<trkpt lat="48.00563" lon="7.854379">
<ele>315.5</ele>
<time>2022-03-12T09:40:14.706Z</time>
</trkpt>
<trkpt lat="48.005668" lon="7.854421">
<ele>315.5</ele>
<time>2022-03-12T09:40:17.719Z</time>
</trkpt>
<trkpt lat="48.005698" lon="7.854472">
<ele>315.5</ele>
<time>2022-03-12T09:40:21.025Z</time>
</trkpt>
<trkpt lat="48.005748" lon="7.854541">
<ele>315.5</ele>
<time>2022-03-12T09:40:26.624Z</time>
</trkpt>
<trkpt lat="48.005786" lon="7.854581">
<ele>315.5</ele>
<time>2022-03-12T09:40:29.323Z</time>
</trkpt>
<trkpt lat="48.005824" lon="7.85462">
<ele>315.5</ele>
<time>2022-03-12T09:40:32.000Z</time>
</trkpt>
<trkpt lat="48.005863" lon="7.854664">
<ele>315.5</ele>
<time>2022-03-12T09:40:35.000Z</time>
</trkpt>
<trkpt lat="48.005837" lon="7.854736">
<ele>315.5</ele>
<time>2022-03-12T09:40:41.385Z</time>
</trkpt>
<trkpt lat="48.005913" lon="7.854809">
<ele>313.4</ele>
<time>2022-03-12T09:40:48.145Z</time>
</trkpt>
<trkpt lat="48.006005" lon="7.854798">
<ele>313.4</ele>
<time>2022-03-12T09:40:52.000Z</time>
</trkpt>
<trkpt lat="48.006074" lon="7.854792">
<ele>313.4</ele>
<time>2022-03-12T09:40:55.000Z</time>
</trkpt>
<trkpt lat="48.006133" lon="7.854824">
<ele>313.4</ele>
<time>2022-03-12T09:40:58.506Z</time>
</trkpt>
<trkpt lat="48.006192" lon="7.854897">
<ele>313.4</ele>
<time>2022-03-12T09:41:04.522Z</time>
</trkpt>
<trkpt lat="48.006246" lon="7.854958">
<ele>313.4</ele>
<time>2022-03-12T09:41:11.162Z</time>
</trkpt>
<trkpt lat="48.006284" lon="7.855038">
<ele>313.4</ele>
<time>2022-03-12T09:41:14.647Z</time>
</trkpt>
<trkpt lat="48.006325" lon="7.855106">
<ele>313.4</ele>
<time>2022-03-12T09:41:17.427Z</time>
</trkpt>
<trkpt lat="48.006367" lon="7.855144">
<ele>313.4</ele>
<time>2022-03-12T09:41:20.466Z</time>
</trkpt>
<trkpt lat="48.006438" lon="7.855224">
<ele>313.4</ele>
<time>2022-03-12T09:41:26.866Z</time>
</trkpt>
<trkpt lat="48.006493" lon="7.855261">
<ele>313.4</ele>
<time>2022-03-12T09:41:30.400Z</time>
</trkpt>
<trkpt lat="48.006544" lon="7.855283">
<ele>313.4</ele>
<time>2022-03-12T09:41:33.131Z</time>
</trkpt>
<trkpt lat="48.006599" lon="7.85531">
<ele>313.4</ele>
<time>2022-03-12T09:41:35.859Z</time>
</trkpt>
<trkpt lat="48.006653" lon="7.855335">
<ele>313.4</ele>
<time>2022-03-12T09:41:38.606Z</time>
</trkpt>
<trkpt lat="48.006699" lon="7.855342">
<ele>313.4</ele>
<time>2022-03-12T09:41:41.319Z</time>
</trkpt>
<trkpt lat="48.006771" lon="7.855364">
<ele>313.4</ele>
<time>2022-03-12T09:41:44.942Z</time>
</trkpt>
<trkpt lat="48.006826" lon="7.855359">
<ele>313.4</ele>
<time>2022-03-12T09:41:47.665Z</time>
</trkpt>
<trkpt lat="48.006878" lon="7.855363">
<ele>313.4</ele>
<time>2022-03-12T09:41:50.381Z</time>
</trkpt>
<trkpt lat="48.006935" lon="7.855348">
<ele>313.4</ele>
<time>2022-03-12T09:41:53.181Z</time>
</trkpt>
<trkpt lat="48.006984" lon="7.855354">
<ele>313.4</ele>
<time>2022-03-12T09:41:55.940Z</time>
</trkpt>
<trkpt lat="48.007038" lon="7.855348">
<ele>313.4</ele>
<time>2022-03-12T09:41:58.683Z</time>
</trkpt>
<trkpt lat="48.00709" lon="7.855336">
<ele>313.4</ele>
<time>2022-03-12T09:42:01.521Z</time>
</trkpt>
<trkpt lat="48.007145" lon="7.855346">
<ele>313.4</ele>
<time>2022-03-12T09:42:04.665Z</time>
</trkpt>
<trkpt lat="48.007342" lon="7.855253">
<ele>311.8</ele>
<time>2022-03-12T09:42:34.986Z</time>
</trkpt>
<trkpt lat="48.007297" lon="7.855235">
<ele>311.9</ele>
<time>2022-03-12T09:42:38.000Z</time>
</trkpt>
<trkpt lat="48.007399" lon="7.855253">
<ele>311.7</ele>
<time>2022-03-12T09:42:42.546Z</time>
</trkpt>
<trkpt lat="48.0075" lon="7.855209">
<ele>311.7</ele>
<time>2022-03-12T09:42:48.987Z</time>
</trkpt>
<trkpt lat="48.007566" lon="7.855187">
<ele>311.7</ele>
<time>2022-03-12T09:42:52.478Z</time>
</trkpt>
<trkpt lat="48.007624" lon="7.855198">
<ele>311.7</ele>
<time>2022-03-12T09:42:55.669Z</time>
</trkpt>
<trkpt lat="48.007666" lon="7.855088">
<ele>311.7</ele>
<time>2022-03-12T09:43:02.000Z</time>
</trkpt>
<trkpt lat="48.007734" lon="7.855027">
<ele>311.7</ele>
<time>2022-03-12T09:43:08.000Z</time>
</trkpt>
<trkpt lat="48.007782" lon="7.854995">
<ele>311.7</ele>
<time>2022-03-12T09:43:11.000Z</time>
</trkpt>
<trkpt lat="48.007834" lon="7.854963">
<ele>311.7</ele>
<time>2022-03-12T09:43:14.607Z</time>
</trkpt>
<trkpt lat="48.007883" lon="7.854951">
<ele>311.7</ele>
<time>2022-03-12T09:43:19.000Z</time>
</trkpt>
<trkpt lat="48.007926" lon="7.854919">
<ele>311.7</ele>
<time>2022-03-12T09:43:22.000Z</time>
</trkpt>
<trkpt lat="48.007984" lon="7.854895">
<ele>311.7</ele>
<time>2022-03-12T09:43:25.000Z</time>
</trkpt>
<trkpt lat="48.008045" lon="7.854872">
<ele>311.7</ele>
<time>2022-03-12T09:43:28.000Z</time>
</trkpt>
<trkpt lat="48.008094" lon="7.854854">
<ele>311.7</ele>
<time>2022-03-12T09:43:30.000Z</time>
</trkpt>
<trkpt lat="48.008142" lon="7.854839">
<ele>311.7</ele>
<time>2022-03-12T09:43:32.000Z</time>
</trkpt>
<trkpt lat="48.00819" lon="7.854833">
<ele>311.7</ele>
<time>2022-03-12T09:43:34.000Z</time>
</trkpt>
<trkpt lat="48.008238" lon="7.854836">
<ele>311.7</ele>
<time>2022-03-12T09:43:36.000Z</time>
</trkpt>
<trkpt lat="48.008303" lon="7.85484">
<ele>311.7</ele>
<time>2022-03-12T09:43:38.630Z</time>
</trkpt>
<trkpt lat="48.008349" lon="7.85488">
<ele>311.7</ele>
<time>2022-03-12T09:43:41.927Z</time>
</trkpt>
<trkpt lat="48.008349" lon="7.854958">
<ele>311.7</ele>
<time>2022-03-12T09:43:46.000Z</time>
</trkpt>
<trkpt lat="48.008392" lon="7.854977">
<ele>311.7</ele>
<time>2022-03-12T09:43:50.629Z</time>
</trkpt>
<trkpt lat="48.008357" lon="7.854934">
<ele>311.7</ele>
<time>2022-03-12T09:44:00.983Z</time>
</trkpt>
<trkpt lat="48.008306" lon="7.854947">
<ele>311.7</ele>
<time>2022-03-12T09:44:03.747Z</time>
</trkpt>
<trkpt lat="48.008224" lon="7.854972">
<ele>311.7</ele>
<time>2022-03-12T09:44:09.263Z</time>
</trkpt>
<trkpt lat="48.008127" lon="7.854911">
<ele>311.7</ele>
<time>2022-03-12T09:44:15.862Z</time>
</trkpt>
<trkpt lat="48.008096" lon="7.854849">
<ele>311.7</ele>
<time>2022-03-12T09:44:18.602Z</time>
</trkpt>
<trkpt lat="48.008058" lon="7.854798">
<ele>311.7</ele>
<time>2022-03-12T09:44:21.342Z</time>
</trkpt>
<trkpt lat="48.007997" lon="7.854801">
<ele>311.7</ele>
<time>2022-03-12T09:44:24.251Z</time>
</trkpt>
<trkpt lat="48.007948" lon="7.854798">
<ele>311.7</ele>
<time>2022-03-12T09:44:27.308Z</time>
</trkpt>
<trkpt lat="48.007895" lon="7.854782">
<ele>311.7</ele>
<time>2022-03-12T09:44:30.862Z</time>
</trkpt>
<trkpt lat="48.007869" lon="7.854679">
<ele>311.7</ele>
<time>2022-03-12T09:44:36.828Z</time>
</trkpt>
<trkpt lat="48.007911" lon="7.854592">
<ele>311.7</ele>
<time>2022-03-12T09:44:43.042Z</time>
</trkpt>
<trkpt lat="48.007943" lon="7.854516">
<ele>311.7</ele>
<time>2022-03-12T09:44:45.762Z</time>
</trkpt>
<trkpt lat="48.007949" lon="7.854404">
<ele>311.7</ele>
<time>2022-03-12T09:44:49.324Z</time>
</trkpt>
<trkpt lat="48.007944" lon="7.854336">
<ele>311.7</ele>
<time>2022-03-12T09:44:52.125Z</time>
</trkpt>
<trkpt lat="48.007937" lon="7.854247">
<ele>311.7</ele>
<time>2022-03-12T09:44:55.528Z</time>
</trkpt>
<trkpt lat="48.007922" lon="7.854142">
<ele>311.7</ele>
<time>2022-03-12T09:44:59.083Z</time>
</trkpt>
<trkpt lat="48.007905" lon="7.854018">
<ele>311.7</ele>
<time>2022-03-12T09:45:02.650Z</time>
</trkpt>
<trkpt lat="48.007893" lon="7.853919">
<ele>311.7</ele>
<time>2022-03-12T09:45:06.000Z</time>
</trkpt>
<trkpt lat="48.007894" lon="7.853844">
<ele>311.7</ele>
<time>2022-03-12T09:45:08.581Z</time>
</trkpt>
<trkpt lat="48.007884" lon="7.853757">
<ele>311.7</ele>
<time>2022-03-12T09:45:12.000Z</time>
</trkpt>
<trkpt lat="48.007882" lon="7.853677">
<ele>311.7</ele>
<time>2022-03-12T09:45:15.000Z</time>
</trkpt>
<trkpt lat="48.007874" lon="7.853599">
<ele>311.7</ele>
<time>2022-03-12T09:45:18.000Z</time>
</trkpt>
<trkpt lat="48.007866" lon="7.853525">
<ele>311.7</ele>
<time>2022-03-12T09:45:20.424Z</time>
</trkpt>
<trkpt lat="48.007815" lon="7.853425">
<ele>311.7</ele>
<time>2022-03-12T09:45:27.000Z</time>
</trkpt>
<trkpt lat="48.007749" lon="7.853419">
<ele>311.7</ele>
<time>2022-03-12T09:45:31.264Z</time>
</trkpt>
<trkpt lat="48.007702" lon="7.853471">
<ele>324.3</ele>
<time>2022-03-12T09:45:34.491Z</time>
</trkpt>
<trkpt lat="48.007654" lon="7.853468">
<ele>322.8</ele>
<time>2022-03-12T09:45:38.000Z</time>
</trkpt>
<trkpt lat="48.007554" lon="7.853442">
<ele>322.1</ele>
<time>2022-03-12T09:45:43.265Z</time>
</trkpt>
<trkpt lat="48.007509" lon="7.853431">
<ele>323.1</ele>
<time>2022-03-12T09:45:46.082Z</time>
</trkpt>
<trkpt lat="48.007459" lon="7.853412">
<ele>324</ele>
<time>2022-03-12T09:45:48.842Z</time>
</trkpt>
<trkpt lat="48.007404" lon="7.853388">
<ele>324.5</ele>
<time>2022-03-12T09:45:51.542Z</time>
</trkpt>
<trkpt lat="48.007326" lon="7.853357">
<ele>324.6</ele>
<time>2022-03-12T09:45:54.651Z</time>
</trkpt>
<trkpt lat="48.007253" lon="7.853336">
<ele>324</ele>
<time>2022-03-12T09:45:57.428Z</time>
</trkpt>
<trkpt lat="48.007178" lon="7.853311">
<ele>322.3</ele>
<time>2022-03-12T09:46:00.168Z</time>
</trkpt>
<trkpt lat="48.007105" lon="7.853295">
<ele>321.5</ele>
<time>2022-03-12T09:46:02.949Z</time>
</trkpt>
<trkpt lat="48.007042" lon="7.853279">
<ele>320.7</ele>
<time>2022-03-12T09:46:05.868Z</time>
</trkpt>
<trkpt lat="48.006972" lon="7.853251">
<ele>319.9</ele>
<time>2022-03-12T09:46:09.370Z</time>
</trkpt>
<trkpt lat="48.006917" lon="7.853236">
<ele>319.1</ele>
<time>2022-03-12T09:46:12.130Z</time>
</trkpt>
<trkpt lat="48.006836" lon="7.853198">
<ele>319.1</ele>
<time>2022-03-12T09:46:17.714Z</time>
</trkpt>
<trkpt lat="48.006744" lon="7.853148">
<ele>318.2</ele>
<time>2022-03-12T09:46:24.311Z</time>
</trkpt>
<trkpt lat="48.006666" lon="7.853117">
<ele>318.2</ele>
<time>2022-03-12T09:46:29.987Z</time>
</trkpt>
<trkpt lat="48.006582" lon="7.853085">
<ele>318.8</ele>
<time>2022-03-12T09:46:35.705Z</time>
</trkpt>
<trkpt lat="48.006532" lon="7.853063">
<ele>319.8</ele>
<time>2022-03-12T09:46:39.268Z</time>
</trkpt>
<trkpt lat="48.006486" lon="7.853045">
<ele>319.7</ele>
<time>2022-03-12T09:46:42.068Z</time>
</trkpt>
<trkpt lat="48.006402" lon="7.853037">
<ele>319.1</ele>
<time>2022-03-12T09:46:47.686Z</time>
</trkpt>
<trkpt lat="48.006309" lon="7.852996">
<ele>318.6</ele>
<time>2022-03-12T09:46:53.911Z</time>
</trkpt>
<trkpt lat="48.006263" lon="7.852986">
<ele>319.9</ele>
<time>2022-03-12T09:46:57.186Z</time>
</trkpt>
<trkpt lat="48.006184" lon="7.852997">
<ele>319.3</ele>
<time>2022-03-12T09:47:02.771Z</time>
</trkpt>
<trkpt lat="48.006105" lon="7.852992">
<ele>318.8</ele>
<time>2022-03-12T09:47:08.908Z</time>
</trkpt>
<trkpt lat="48.006032" lon="7.853025">
<ele>319.7</ele>
<time>2022-03-12T09:47:14.883Z</time>
</trkpt>
<trkpt lat="48.005976" lon="7.853013">
<ele>320</ele>
<time>2022-03-12T09:47:17.643Z</time>
</trkpt>
<trkpt lat="48.005921" lon="7.852998">
<ele>320.5</ele>
<time>2022-03-12T09:47:20.443Z</time>
</trkpt>
<trkpt lat="48.005818" lon="7.852972">
<ele>320.2</ele>
<time>2022-03-12T09:47:26.587Z</time>
</trkpt>
<trkpt lat="48.005763" lon="7.852951">
<ele>320.6</ele>
<time>2022-03-12T09:47:29.624Z</time>
</trkpt>
<trkpt lat="48.005712" lon="7.852939">
<ele>320.3</ele>
<time>2022-03-12T09:47:32.406Z</time>
</trkpt>
<trkpt lat="48.005655" lon="7.852931">
<ele>319.9</ele>
<time>2022-03-12T09:47:35.185Z</time>
</trkpt>
<trkpt lat="48.005603" lon="7.852922">
<ele>320.4</ele>
<time>2022-03-12T09:47:37.924Z</time>
</trkpt>
<trkpt lat="48.005552" lon="7.852908">
<ele>320.4</ele>
<time>2022-03-12T09:47:40.709Z</time>
</trkpt>
<trkpt lat="48.005457" lon="7.852893">
<ele>316.2</ele>
<time>2022-03-12T09:47:43.503Z</time>
</trkpt>
<trkpt lat="48.005403" lon="7.852877">
<ele>316.2</ele>
<time>2022-03-12T09:47:46.262Z</time>
</trkpt>
<trkpt lat="48.005349" lon="7.85286">
<ele>316.2</ele>
<time>2022-03-12T09:47:49.110Z</time>
</trkpt>
<trkpt lat="48.00529" lon="7.852833">
<ele>316.2</ele>
<time>2022-03-12T09:47:51.828Z</time>
</trkpt>
<trkpt lat="48.005241" lon="7.852812">
<ele>316.2</ele>
<time>2022-03-12T09:47:54.589Z</time>
</trkpt>
<trkpt lat="48.005193" lon="7.852794">
<ele>316.2</ele>
<time>2022-03-12T09:47:57.369Z</time>
</trkpt>
<trkpt lat="48.005146" lon="7.852776">
<ele>316.2</ele>
<time>2022-03-12T09:48:00.108Z</time>
</trkpt>
<trkpt lat="48.005098" lon="7.852758">
<ele>316.2</ele>
<time>2022-03-12T09:48:02.948Z</time>
</trkpt>
<trkpt lat="48.005019" lon="7.852714">
<ele>316.2</ele>
<time>2022-03-12T09:48:08.505Z</time>
</trkpt>
<trkpt lat="48.004973" lon="7.852694">
<ele>316.2</ele>
<time>2022-03-12T09:48:11.265Z</time>
</trkpt>
<trkpt lat="48.004915" lon="7.852673">
<ele>316.2</ele>
<time>2022-03-12T09:48:14.968Z</time>
</trkpt>
<trkpt lat="48.004827" lon="7.852659">
<ele>316.2</ele>
<time>2022-03-12T09:48:20.515Z</time>
</trkpt>
<trkpt lat="48.004779" lon="7.852659">
<ele>316.2</ele>
<time>2022-03-12T09:48:23.268Z</time>
</trkpt>
<trkpt lat="48.004728" lon="7.852655">
<ele>316.2</ele>
<time>2022-03-12T09:48:26.601Z</time>
</trkpt>
<trkpt lat="48.004679" lon="7.852645">
<ele>316.2</ele>
<time>2022-03-12T09:48:30.344Z</time>
</trkpt>
<trkpt lat="48.004634" lon="7.852669">
<ele>316.2</ele>
<time>2022-03-12T09:48:33.650Z</time>
</trkpt>
<trkpt lat="48.004545" lon="7.852662">
<ele>316.2</ele>
<time>2022-03-12T09:48:41.000Z</time>
</trkpt>
<trkpt lat="48.00447" lon="7.852635">
<ele>316.2</ele>
<time>2022-03-12T09:48:46.583Z</time>
</trkpt>
<trkpt lat="48.004376" lon="7.852589">
<ele>316.2</ele>
<time>2022-03-12T09:48:52.163Z</time>
</trkpt>
<trkpt lat="48.004319" lon="7.852578">
<ele>316.2</ele>
<time>2022-03-12T09:48:54.980Z</time>
</trkpt>
<trkpt lat="48.004261" lon="7.852572">
<ele>316.2</ele>
<time>2022-03-12T09:48:57.829Z</time>
</trkpt>
<trkpt lat="48.004199" lon="7.852566">
<ele>316.2</ele>
<time>2022-03-12T09:49:00.794Z</time>
</trkpt>
<trkpt lat="48.004133" lon="7.852556">
<ele>316.2</ele>
<time>2022-03-12T09:49:05.000Z</time>
</trkpt>
<trkpt lat="48.00408" lon="7.85254">
<ele>316.2</ele>
<time>2022-03-12T09:49:11.000Z</time>
</trkpt>
<trkpt lat="48.004033" lon="7.852509">
<ele>316.2</ele>
<time>2022-03-12T09:49:14.000Z</time>
</trkpt>
<trkpt lat="48.003987" lon="7.852494">
<ele>316.2</ele>
<time>2022-03-12T09:49:17.000Z</time>
</trkpt>
<trkpt lat="48.003897" lon="7.852463">
<ele>316.2</ele>
<time>2022-03-12T09:49:22.516Z</time>
</trkpt>
<trkpt lat="48.003846" lon="7.852446">
<ele>316.2</ele>
<time>2022-03-12T09:49:25.266Z</time>
</trkpt>
<trkpt lat="48.003758" lon="7.852407">
<ele>316.2</ele>
<time>2022-03-12T09:49:30.805Z</time>
</trkpt>
<trkpt lat="48.003679" lon="7.852353">
<ele>316.2</ele>
<time>2022-03-12T09:49:36.344Z</time>
</trkpt>
<trkpt lat="48.003595" lon="7.852322">
<ele>316.2</ele>
<time>2022-03-12T09:49:41.843Z</time>
</trkpt>
<trkpt lat="48.003546" lon="7.852313">
<ele>316.2</ele>
<time>2022-03-12T09:49:44.624Z</time>
</trkpt>
<trkpt lat="48.003463" lon="7.852281">
<ele>316.2</ele>
<time>2022-03-12T09:49:50.222Z</time>
</trkpt>
<trkpt lat="48.003409" lon="7.852245">
<ele>316.2</ele>
<time>2022-03-12T09:49:53.903Z</time>
</trkpt>
<trkpt lat="48.003365" lon="7.852228">
<ele>316.2</ele>
<time>2022-03-12T09:49:56.667Z</time>
</trkpt>
<trkpt lat="48.003278" lon="7.852207">
<ele>316.2</ele>
<time>2022-03-12T09:50:02.262Z</time>
</trkpt>
<trkpt lat="48.003206" lon="7.852195">
<ele>316.2</ele>
<time>2022-03-12T09:50:08.565Z</time>
</trkpt>
<trkpt lat="48.00317" lon="7.852152">
<ele>316.2</ele>
<time>2022-03-12T09:50:11.304Z</time>
</trkpt>
<trkpt lat="48.003127" lon="7.852125">
<ele>316.2</ele>
<time>2022-03-12T09:50:14.912Z</time>
</trkpt>
<trkpt lat="48.00308" lon="7.852121">
<ele>316.2</ele>
<time>2022-03-12T09:50:17.646Z</time>
</trkpt>
<trkpt lat="48.003012" lon="7.852104">
<ele>316.2</ele>
<time>2022-03-12T09:50:21.221Z</time>
</trkpt>
<trkpt lat="48.00296" lon="7.852083">
<ele>316.2</ele>
<time>2022-03-12T09:50:23.970Z</time>
</trkpt>
<trkpt lat="48.00285" lon="7.852038">
<ele>316.2</ele>
<time>2022-03-12T09:50:30.287Z</time>
</trkpt>
<trkpt lat="48.002756" lon="7.852011">
<ele>316.2</ele>
<time>2022-03-12T09:50:33.906Z</time>
</trkpt>
<trkpt lat="48.00269" lon="7.851987">
<ele>316.2</ele>
<time>2022-03-12T09:50:36.685Z</time>
</trkpt>
<trkpt lat="48.002628" lon="7.851912">
<ele>316.2</ele>
<time>2022-03-12T09:50:40.270Z</time>
</trkpt>
<trkpt lat="48.002598" lon="7.851854">
<ele>316.2</ele>
<time>2022-03-12T09:50:42.970Z</time>
</trkpt>
<trkpt lat="48.002589" lon="7.851781">
<ele>316.2</ele>
<time>2022-03-12T09:50:46.226Z</time>
</trkpt>
<trkpt lat="48.002593" lon="7.851711">
<ele>316.2</ele>
<time>2022-03-12T09:50:49.509Z</time>
</trkpt>
<trkpt lat="48.002609" lon="7.851645">
<ele>316.2</ele>
<time>2022-03-12T09:50:52.505Z</time>
</trkpt>
<trkpt lat="48.002624" lon="7.851581">
<ele>316.2</ele>
<time>2022-03-12T09:50:55.229Z</time>
</trkpt>
<trkpt lat="48.002637" lon="7.851474">
<ele>316.2</ele>
<time>2022-03-12T09:51:00.767Z</time>
</trkpt>
<trkpt lat="48.002628" lon="7.851386">
<ele>316.2</ele>
<time>2022-03-12T09:51:05.482Z</time>
</trkpt>
<trkpt lat="48.00262" lon="7.851293">
<ele>316.2</ele>
<time>2022-03-12T09:51:10.506Z</time>
</trkpt>
<trkpt lat="48.002603" lon="7.851218">
<ele>316.2</ele>
<time>2022-03-12T09:51:14.000Z</time>
</trkpt>
<trkpt lat="48.002581" lon="7.851154">
<ele>316.2</ele>
<time>2022-03-12T09:51:16.748Z</time>
</trkpt>
<trkpt lat="48.002548" lon="7.851082">
<ele>316.2</ele>
<time>2022-03-12T09:51:19.607Z</time>
</trkpt>
<trkpt lat="48.002513" lon="7.851025">
<ele>316.2</ele>
<time>2022-03-12T09:51:22.666Z</time>
</trkpt>
<trkpt lat="48.002477" lon="7.850927">
<ele>316.2</ele>
<time>2022-03-12T09:51:27.000Z</time>
</trkpt>
<trkpt lat="48.002433" lon="7.850816">
<ele>316.2</ele>
<time>2022-03-12T09:51:32.402Z</time>
</trkpt>
<trkpt lat="48.002422" lon="7.850737">
<ele>321.1</ele>
<time>2022-03-12T09:51:36.000Z</time>
</trkpt>
<trkpt lat="48.002426" lon="7.850665">
<ele>322.1</ele>
<time>2022-03-12T09:51:39.000Z</time>
</trkpt>
<trkpt lat="48.00243" lon="7.850588">
<ele>319.2</ele>
<time>2022-03-12T09:51:42.000Z</time>
</trkpt>
<trkpt lat="48.002425" lon="7.8505">
<ele>319.2</ele>
<time>2022-03-12T09:51:44.087Z</time>
</trkpt>
<trkpt lat="48.002409" lon="7.850365">
<ele>319.2</ele>
<time>2022-03-12T09:51:47.000Z</time>
</trkpt>
<trkpt lat="48.0024" lon="7.850285">
<ele>319.2</ele>
<time>2022-03-12T09:51:49.000Z</time>
</trkpt>
<trkpt lat="48.002393" lon="7.850206">
<ele>319.2</ele>
<time>2022-03-12T09:51:50.984Z</time>
</trkpt>
<trkpt lat="48.002394" lon="7.850113">
<ele>319.2</ele>
<time>2022-03-12T09:51:54.000Z</time>
</trkpt>
<trkpt lat="48.002386" lon="7.850034">
<ele>319.2</ele>
<time>2022-03-12T09:51:57.000Z</time>
</trkpt>
<trkpt lat="48.002373" lon="7.849962">
<ele>319.2</ele>
<time>2022-03-12T09:52:00.000Z</time>
</trkpt>
<trkpt lat="48.002349" lon="7.849875">
<ele>319.2</ele>
<time>2022-03-12T09:52:03.264Z</time>
</trkpt>
</trkseg>
</trk>
</gpx>